createdAt,value
2018-08-13T00:01:03.263Z,19.50
2018-08-13T00:03:32.441Z,19.60
2018-08-13T00:06:01.335Z,19.60
2018-08-13T00:08:30.198Z,19.60
2018-08-13T00:10:59.054Z,19.60
2018-08-13T00:13:27.904Z,19.40
2018-08-13T00:15:56.835Z,19.30
2018-08-13T00:18:25.705Z,19.40
2018-08-13T00:20:54.689Z,19.40
2018-08-13T00:23:23.578Z,19.40
2018-08-13T00:25:52.518Z,19.40
2018-08-13T00:28:21.419Z,19.30
2018-08-13T00:30:50.365Z,19.30
2018-08-13T00:33:19.211Z,19.30
2018-08-13T00:35:48.104Z,19.30
2018-08-13T00:38:17.065Z,19.30
2018-08-13T00:40:45.949Z,19.20
2018-08-13T00:43:14.864Z,19.20
2018-08-13T00:45:43.797Z,19.30
2018-08-13T00:48:12.696Z,19.30
2018-08-13T00:50:41.699Z,19.10
2018-08-13T00:53:10.514Z,19.00
2018-08-13T00:55:39.373Z,19.00
2018-08-13T00:58:08.261Z,19.00
2018-08-13T01:00:37.219Z,19.00
2018-08-13T01:03:07.284Z,19.20
2018-08-13T01:05:36.259Z,19.00
2018-08-13T01:08:05.167Z,19.00
2018-08-13T01:10:34.090Z,19.00
2018-08-13T01:13:03.039Z,18.90
2018-08-13T01:15:32.099Z,18.80
2018-08-13T01:18:00.981Z,18.80
2018-08-13T01:20:29.855Z,18.70
2018-08-13T01:22:58.680Z,18.70
2018-08-13T01:25:27.768Z,18.70
2018-08-13T01:27:56.700Z,18.80
2018-08-13T01:30:25.608Z,18.70
2018-08-13T01:32:54.544Z,18.80
2018-08-13T01:35:23.437Z,18.80
2018-08-13T01:37:52.318Z,18.60
2018-08-13T01:40:21.267Z,18.60
2018-08-13T01:42:50.098Z,18.60
2018-08-13T01:45:19.024Z,18.70
2018-08-13T01:47:47.916Z,18.70
2018-08-13T01:50:16.813Z,18.60
2018-08-13T01:52:45.721Z,18.60
2018-08-13T01:55:14.599Z,18.60
2018-08-13T01:57:43.433Z,18.60
2018-08-13T02:00:14.881Z,18.60
2018-08-13T02:02:43.840Z,18.60
2018-08-13T02:05:12.777Z,18.50
2018-08-13T02:07:41.635Z,18.50
2018-08-13T02:10:12.044Z,18.40
2018-08-13T02:12:41.193Z,18.60
2018-08-13T02:15:10.214Z,18.70
2018-08-13T02:17:39.115Z,18.60
2018-08-13T02:20:09.033Z,18.40
2018-08-13T02:25:07.514Z,18.20
2018-08-13T02:27:36.524Z,18.20
2018-08-13T02:30:08.478Z,18.10
2018-08-13T02:32:37.569Z,18.10
2018-08-13T02:35:07.736Z,18.10
2018-08-13T02:37:36.748Z,18.00
2018-08-13T02:40:07.177Z,18.10
2018-08-13T02:42:36.281Z,18.20
2018-08-13T02:45:07.040Z,18.00
2018-08-13T02:47:35.874Z,17.90
2018-08-13T02:50:05.819Z,17.80
2018-08-13T02:52:34.726Z,17.80
2018-08-13T02:55:03.648Z,17.90
2018-08-13T02:57:32.473Z,17.80
2018-08-13T03:00:01.346Z,17.70
2018-08-13T03:02:30.219Z,17.80
2018-08-13T03:04:59.079Z,17.70
2018-08-13T03:07:27.902Z,17.70
2018-08-13T03:09:56.758Z,17.80
2018-08-13T03:12:25.631Z,17.70
2018-08-13T03:14:54.512Z,17.80
2018-08-13T03:17:32.197Z,17.60
2018-08-13T03:20:01.974Z,17.60
2018-08-13T03:22:31.562Z,17.50
2018-08-13T03:25:01.586Z,17.50
2018-08-13T03:27:30.636Z,17.60
2018-08-13T03:30:00.554Z,17.70
2018-08-13T03:32:29.625Z,17.60
2018-08-13T03:34:58.545Z,17.60
2018-08-13T03:37:27.434Z,17.70
2018-08-13T03:39:56.401Z,17.70
2018-08-13T03:42:25.278Z,17.60
2018-08-13T03:44:54.188Z,17.50
2018-08-13T03:47:23.104Z,17.40
2018-08-13T03:49:52.007Z,17.40
2018-08-13T03:52:20.884Z,17.40
2018-08-13T03:54:49.786Z,17.40
2018-08-13T03:57:18.576Z,17.40
2018-08-13T03:59:47.465Z,17.40
2018-08-13T04:02:16.436Z,17.40
2018-08-13T04:04:45.285Z,17.40
2018-08-13T04:07:14.264Z,17.50
2018-08-13T04:09:44.764Z,17.40
2018-08-13T04:12:14.615Z,17.30
2018-08-13T04:14:43.546Z,17.20
2018-08-13T04:17:12.380Z,17.20
2018-08-13T04:19:41.295Z,17.00
2018-08-13T04:22:10.189Z,17.10
2018-08-13T04:24:39.058Z,17.10
2018-08-13T04:27:07.980Z,17.10
2018-08-13T04:29:36.800Z,17.20
2018-08-13T04:32:05.675Z,17.10
2018-08-13T04:34:34.650Z,17.00
2018-08-13T04:37:03.683Z,17.00
2018-08-13T04:39:32.620Z,16.90
2018-08-13T04:42:01.476Z,16.90
2018-08-13T04:44:30.409Z,16.80
2018-08-13T04:46:59.389Z,16.90
2018-08-13T04:49:28.312Z,17.00
2018-08-13T04:51:57.298Z,17.00
2018-08-13T04:54:26.189Z,17.10
2018-08-13T04:56:55.155Z,17.20
2018-08-13T04:59:24.117Z,17.20
2018-08-13T05:01:53.137Z,17.00
2018-08-13T05:04:22.071Z,17.00
2018-08-13T05:06:50.961Z,17.00
2018-08-13T05:09:19.860Z,17.10
2018-08-13T05:11:48.756Z,17.00
2018-08-13T05:14:17.657Z,17.00
2018-08-13T05:16:46.559Z,17.10
2018-08-13T05:19:15.465Z,17.00
2018-08-13T05:21:44.405Z,17.10
2018-08-13T05:24:13.294Z,17.10
2018-08-13T05:26:42.764Z,17.20
2018-08-13T05:29:11.675Z,17.30
2018-08-13T05:31:40.518Z,17.40
2018-08-13T05:34:09.496Z,17.60
2018-08-13T05:36:38.534Z,17.70
2018-08-13T05:39:10.276Z,17.70
2018-08-13T05:41:39.320Z,17.70
2018-08-13T05:44:08.300Z,17.70
2018-08-13T05:46:37.217Z,17.60
2018-08-13T05:49:06.244Z,17.40
2018-08-13T05:51:35.164Z,17.20
2018-08-13T05:54:04.186Z,17.50
2018-08-13T05:56:33.077Z,17.70
2018-08-13T05:59:01.984Z,17.70
2018-08-13T06:01:30.842Z,17.90
2018-08-13T06:03:59.777Z,18.00
2018-08-13T06:06:28.678Z,18.10
2018-08-13T06:08:57.566Z,18.20
2018-08-13T06:11:26.578Z,18.20
2018-08-13T06:13:55.356Z,18.20
2018-08-13T06:16:24.226Z,18.30
2018-08-13T06:18:53.459Z,18.40
2018-08-13T06:21:22.421Z,18.50
2018-08-13T06:23:51.300Z,18.60
2018-08-13T06:26:20.183Z,18.70
2018-08-13T06:28:49.071Z,18.70
2018-08-13T06:31:17.948Z,18.70
2018-08-13T06:33:46.818Z,18.80
2018-08-13T06:36:15.807Z,18.90
2018-08-13T06:38:44.744Z,18.90
2018-08-13T06:41:13.650Z,18.90
2018-08-13T06:43:42.593Z,18.90
2018-08-13T06:46:11.465Z,18.90
2018-08-13T06:48:40.324Z,18.90
2018-08-13T06:51:09.233Z,19.10
2018-08-13T06:53:39.348Z,19.20
2018-08-13T06:56:08.609Z,19.30
2018-08-13T06:58:37.525Z,19.40
2018-08-13T07:01:06.593Z,19.40
2018-08-13T07:03:35.549Z,19.50
2018-08-13T07:06:04.549Z,19.60
2018-08-13T07:08:33.452Z,19.60
2018-08-13T07:11:02.382Z,19.70
2018-08-13T07:13:31.275Z,19.80
2018-08-13T07:16:00.184Z,19.90
2018-08-13T07:18:29.062Z,20.00
2018-08-13T07:20:57.994Z,20.10
2018-08-13T07:23:32.439Z,20.20
2018-08-13T07:26:06.007Z,20.30
2018-08-13T07:28:34.920Z,20.40
2018-08-13T07:31:03.775Z,20.50
2018-08-13T07:36:01.513Z,20.80
2018-08-13T07:38:30.518Z,20.90
2018-08-13T07:40:59.418Z,20.90
2018-08-13T07:43:28.364Z,21.00
2018-08-13T07:45:57.340Z,21.00
2018-08-13T07:48:26.320Z,21.10
2018-08-13T07:50:55.193Z,21.20
2018-08-13T07:53:24.214Z,21.20
2018-08-13T07:55:53.148Z,21.30
2018-08-13T07:58:22.102Z,21.40
2018-08-13T08:00:51.070Z,21.50
2018-08-13T08:03:19.995Z,21.50
2018-08-13T08:05:48.937Z,21.60
2018-08-13T08:08:17.830Z,21.60
2018-08-13T08:10:46.827Z,21.60
2018-08-13T08:13:15.705Z,21.70
2018-08-13T08:15:44.579Z,21.80
2018-08-13T08:18:13.447Z,21.80
2018-08-13T08:20:42.546Z,21.90
2018-08-13T08:23:11.457Z,21.90
2018-08-13T08:25:40.422Z,22.00
2018-08-13T08:28:09.388Z,22.10
2018-08-13T08:30:38.345Z,22.10
2018-08-13T08:33:07.604Z,22.20
2018-08-13T08:35:36.543Z,22.30
2018-08-13T08:38:06.001Z,22.40
2018-08-13T08:40:35.118Z,22.40
2018-08-13T08:43:04.120Z,22.50
2018-08-13T08:45:33.027Z,22.50
2018-08-13T08:48:01.909Z,22.60
2018-08-13T08:50:30.873Z,22.60
2018-08-13T08:52:59.784Z,22.70
2018-08-13T08:55:28.783Z,22.80
2018-08-13T08:57:57.679Z,22.80
2018-08-13T09:00:26.578Z,22.90
2018-08-13T09:02:55.549Z,23.00
2018-08-13T09:05:24.482Z,23.00
2018-08-13T09:07:53.483Z,23.10
2018-08-13T09:10:22.451Z,23.20
2018-08-13T09:12:51.323Z,23.20
2018-08-13T09:15:20.223Z,23.30
2018-08-13T17:34:10.805Z,22.90
2018-08-13T17:36:40.103Z,22.90
2018-08-13T17:39:12.583Z,22.80
2018-08-13T17:41:41.919Z,22.80
2018-08-13T17:44:10.969Z,22.80
2018-08-13T17:46:39.967Z,22.70
2018-08-13T17:49:09.433Z,22.60
2018-08-13T17:51:38.705Z,22.30
2018-08-13T17:54:07.743Z,22.20
